Pagrindinis puslapis
METAR-TAF:

METAR-TAF

Oro uostai :

Roskildė, Danija

platuma: 55-35N, ilguma: 012-08E, Aukštis: 44 m

Dabartinis oras

Ataskaita buvo paskelbta 29 minutes, ne 15:50 UTC
Vėjas 14 kt iš Vakarų
Temperatūra 6°C
Drėgmė 75%
Slėgis 1001 hPa
Matomumas 10 km arba daugiau

METAR: EKRK 071550Z AUTO 27014KT 9999 FEW032/// BKN074/// 06/02 Q1001

Laikas: 17:19 (16:19 UTC)

Prognozė

Ataskaita buvo paskelbta 2 valandos ir 13 minutes, ne 14:06 UTC
Prognozė galioja nuo 07 metu 15 UTC su 07 metu 24 UTC
Vėjas 18 kt iš Vakarų
Matomumas 10 km arba daugiau
Išsisklaidę debesys ne aukštis 2500 ft
Tapsmas
nuo 07 metu 17 UTC su 07 metu 20 UTC
Vėjas 8 kt iš Vakarų

TAF: EKRK 071406Z 0715/0724 28018KT 9999 SCT025 BECMG 0717/0720 26008KT

Orai ataskaitas ir orų prognozės (METAR, TAF).

turimą stotys yra geltonos ir raudonos taškus žemėlapyje.

Perkelti pele per norėdami pamatyti stoties vardą.

Tada spustelėkite, norėdami matyti oro stebėjimo ir prognozės.

Norėdami pakeisti žemėlapį: spustelėkite ant žalios mygtukų su juodo kryžiaus žemyn,; žalią mygtuką su brūkšneliu, jei norite nutolinti; arba žalių rodyklių gretimoms žemėlapius.


METAR-TAF: